sensor_id;sensor_type;location;lat;lon;timestamp;P1;durP1;ratioP1;P2;durP2;ratioP2
20527;SDS011;23612;50.894;10.700;2023-06-22T00:01:14;7.45;;;5.18;;
20527;SDS011;23612;50.894;10.700;2023-06-22T00:03:39;8.18;;;4.90;;
20527;SDS011;23612;50.894;10.700;2023-06-22T00:06:05;5.60;;;4.88;;
20527;SDS011;23612;50.894;10.700;2023-06-22T00:08:30;6.45;;;5.25;;
20527;SDS011;23612;50.894;10.700;2023-06-22T00:10:56;5.70;;;5.10;;
20527;SDS011;23612;50.894;10.700;2023-06-22T00:13:21;7.07;;;5.50;;
20527;SDS011;23612;50.894;10.700;2023-06-22T00:15:47;5.93;;;5.35;;
20527;SDS011;23612;50.894;10.700;2023-06-22T00:18:12;10.02;;;5.40;;
20527;SDS011;23612;50.894;10.700;2023-06-22T00:20:38;5.97;;;5.38;;
20527;SDS011;23612;50.894;10.700;2023-06-22T00:23:05;5.75;;;5.25;;
20527;SDS011;23612;50.894;10.700;2023-06-22T00:25:36;6.97;;;6.28;;
20527;SDS011;23612;50.894;10.700;2023-06-22T00:28:03;10.63;;;6.82;;
20527;SDS011;23612;50.894;10.700;2023-06-22T00:30:30;9.00;;;6.72;;
20527;SDS011;23612;50.894;10.700;2023-06-22T00:32:56;8.75;;;7.38;;
20527;SDS011;23612;50.894;10.700;2023-06-22T00:35:22;7.50;;;6.70;;
20527;SDS011;23612;50.894;10.700;2023-06-22T00:37:47;7.63;;;6.82;;
20527;SDS011;23612;50.894;10.700;2023-06-22T00:40:13;11.40;;;7.43;;
20527;SDS011;23612;50.894;10.700;2023-06-22T00:42:39;7.97;;;6.95;;
20527;SDS011;23612;50.894;10.700;2023-06-22T00:45:05;8.07;;;6.85;;
20527;SDS011;23612;50.894;10.700;2023-06-22T00:47:32;10.60;;;6.82;;
20527;SDS011;23612;50.894;10.700;2023-06-22T00:49:59;8.70;;;6.68;;
20527;SDS011;23612;50.894;10.700;2023-06-22T00:52:25;7.38;;;6.25;;
20527;SDS011;23612;50.894;10.700;2023-06-22T00:54:56;7.55;;;6.57;;
20527;SDS011;23612;50.894;10.700;2023-06-22T00:57:22;7.38;;;6.53;;
20527;SDS011;23612;50.894;10.700;2023-06-22T00:59:53;7.10;;;6.45;;
20527;SDS011;23612;50.894;10.700;2023-06-22T01:02:19;8.68;;;6.95;;
20527;SDS011;23612;50.894;10.700;2023-06-22T01:04:44;8.35;;;6.75;;
20527;SDS011;23612;50.894;10.700;2023-06-22T01:07:12;10.43;;;6.13;;
20527;SDS011;23612;50.894;10.700;2023-06-22T01:09:47;8.77;;;6.35;;
20527;SDS011;23612;50.894;10.700;2023-06-22T01:12:21;7.25;;;5.85;;
20527;SDS011;23612;50.894;10.700;2023-06-22T01:14:53;7.78;;;6.75;;
20527;SDS011;23612;50.894;10.700;2023-06-22T01:17:26;6.65;;;5.95;;
20527;SDS011;23612;50.894;10.700;2023-06-22T01:19:54;7.53;;;6.47;;
20527;SDS011;23612;50.894;10.700;2023-06-22T01:22:22;9.13;;;6.32;;
20527;SDS011;23612;50.894;10.700;2023-06-22T01:25:10;6.90;;;6.20;;
20527;SDS011;23612;50.894;10.700;2023-06-22T01:27:47;7.43;;;6.72;;
20527;SDS011;23612;50.894;10.700;2023-06-22T01:30:40;8.25;;;6.88;;
20527;SDS011;23612;50.894;10.700;2023-06-22T01:33:09;9.25;;;6.72;;
20527;SDS011;23612;50.894;10.700;2023-06-22T01:35:37;8.55;;;6.78;;
20527;SDS011;23612;50.894;10.700;2023-06-22T01:38:03;8.27;;;6.97;;
20527;SDS011;23612;50.894;10.700;2023-06-22T01:40:29;10.45;;;7.07;;
20527;SDS011;23612;50.894;10.700;2023-06-22T01:42:57;12.25;;;7.60;;
20527;SDS011;23612;50.894;10.700;2023-06-22T01:45:25;11.00;;;7.57;;
20527;SDS011;23612;50.894;10.700;2023-06-22T01:47:52;11.20;;;7.38;;
20527;SDS011;23612;50.894;10.700;2023-06-22T01:50:18;9.48;;;7.53;;
20527;SDS011;23612;50.894;10.700;2023-06-22T01:52:44;10.88;;;7.97;;
20527;SDS011;23612;50.894;10.700;2023-06-22T01:55:10;8.40;;;7.20;;
20527;SDS011;23612;50.894;10.700;2023-06-22T01:57:35;9.25;;;7.35;;
20527;SDS011;23612;50.894;10.700;2023-06-22T02:00:04;9.98;;;7.60;;
20527;SDS011;23612;50.894;10.700;2023-06-22T02:02:39;9.07;;;7.70;;
20527;SDS011;23612;50.894;10.700;2023-06-22T02:05:14;9.65;;;8.52;;
20527;SDS011;23612;50.894;10.700;2023-06-22T02:07:45;11.52;;;7.63;;
20527;SDS011;23612;50.894;10.700;2023-06-22T02:10:17;13.40;;;8.20;;
20527;SDS011;23612;50.894;10.700;2023-06-22T02:12:45;13.77;;;7.75;;
20527;SDS011;23612;50.894;10.700;2023-06-22T02:15:12;14.95;;;7.30;;
20527;SDS011;23612;50.894;10.700;2023-06-22T02:17:38;15.90;;;7.72;;
20527;SDS011;23612;50.894;10.700;2023-06-22T02:20:03;12.38;;;7.13;;
20527;SDS011;23612;50.894;10.700;2023-06-22T02:22:32;15.38;;;7.93;;
20527;SDS011;23612;50.894;10.700;2023-06-22T02:24:58;14.55;;;7.68;;
20527;SDS011;23612;50.894;10.700;2023-06-22T02:27:23;9.85;;;7.43;;
20527;SDS011;23612;50.894;10.700;2023-06-22T02:29:49;12.00;;;7.10;;
20527;SDS011;23612;50.894;10.700;2023-06-22T02:32:14;10.27;;;6.45;;
20527;SDS011;23612;50.894;10.700;2023-06-22T02:34:42;10.27;;;7.05;;
20527;SDS011;23612;50.894;10.700;2023-06-22T02:37:07;13.05;;;7.03;;
20527;SDS011;23612;50.894;10.700;2023-06-22T02:39:35;8.80;;;7.50;;
20527;SDS011;23612;50.894;10.700;2023-06-22T02:42:01;11.13;;;6.65;;
20527;SDS011;23612;50.894;10.700;2023-06-22T02:44:27;11.68;;;6.72;;
20527;SDS011;23612;50.894;10.700;2023-06-22T02:46:52;10.48;;;6.50;;
20527;SDS011;23612;50.894;10.700;2023-06-22T02:49:19;9.13;;;6.40;;
20527;SDS011;23612;50.894;10.700;2023-06-22T02:51:48;13.25;;;6.70;;
20527;SDS011;23612;50.894;10.700;2023-06-22T02:54:13;14.27;;;7.20;;
20527;SDS011;23612;50.894;10.700;2023-06-22T02:56:39;16.70;;;7.70;;
20527;SDS011;23612;50.894;10.700;2023-06-22T02:59:05;14.25;;;7.88;;
20527;SDS011;23612;50.894;10.700;2023-06-22T03:01:31;15.48;;;7.85;;
20527;SDS011;23612;50.894;10.700;2023-06-22T03:04:02;14.93;;;6.70;;
20527;SDS011;23612;50.894;10.700;2023-06-22T03:06:29;10.98;;;6.68;;
20527;SDS011;23612;50.894;10.700;2023-06-22T03:09:01;15.27;;;7.70;;
20527;SDS011;23612;50.894;10.700;2023-06-22T03:11:29;8.90;;;7.78;;
20527;SDS011;23612;50.894;10.700;2023-06-22T03:13:56;16.67;;;7.97;;
20527;SDS011;23612;50.894;10.700;2023-06-22T03:16:21;12.32;;;8.45;;
20527;SDS011;23612;50.894;10.700;2023-06-22T03:18:47;14.52;;;8.63;;
20527;SDS011;23612;50.894;10.700;2023-06-22T03:21:12;12.43;;;8.23;;
20527;SDS011;23612;50.894;10.700;2023-06-22T03:23:40;11.73;;;7.53;;
20527;SDS011;23612;50.894;10.700;2023-06-22T03:26:05;10.00;;;7.75;;
20527;SDS011;23612;50.894;10.700;2023-06-22T03:28:31;14.32;;;8.65;;
20527;SDS011;23612;50.894;10.700;2023-06-22T03:30:57;9.75;;;7.65;;
20527;SDS011;23612;50.894;10.700;2023-06-22T03:33:23;9.18;;;7.32;;
20527;SDS011;23612;50.894;10.700;2023-06-22T03:35:49;15.05;;;8.00;;
20527;SDS011;23612;50.894;10.700;2023-06-22T03:38:15;15.15;;;8.60;;
20527;SDS011;23612;50.894;10.700;2023-06-22T03:40:41;11.07;;;8.40;;
20527;SDS011;23612;50.894;10.700;2023-06-22T03:43:06;10.70;;;8.05;;
20527;SDS011;23612;50.894;10.700;2023-06-22T03:45:32;15.00;;;8.95;;
20527;SDS011;23612;50.894;10.700;2023-06-22T03:47:57;16.00;;;9.75;;
20527;SDS011;23612;50.894;10.700;2023-06-22T03:50:22;13.00;;;9.15;;
20527;SDS011;23612;50.894;10.700;2023-06-22T03:52:48;16.77;;;9.68;;
20527;SDS011;23612;50.894;10.700;2023-06-22T03:55:13;17.05;;;10.13;;
20527;SDS011;23612;50.894;10.700;2023-06-22T03:57:39;16.27;;;10.70;;
20527;SDS011;23612;50.894;10.700;2023-06-22T04:00:04;18.45;;;11.20;;
20527;SDS011;23612;50.894;10.700;2023-06-22T04:02:31;22.92;;;11.85;;
20527;SDS011;23612;50.894;10.700;2023-06-22T04:04:56;16.33;;;12.07;;
20527;SDS011;23612;50.894;10.700;2023-06-22T04:07:22;21.40;;;12.13;;
20527;SDS011;23612;50.894;10.700;2023-06-22T04:09:47;15.45;;;11.40;;
20527;SDS011;23612;50.894;10.700;2023-06-22T04:12:13;18.30;;;10.90;;
20527;SDS011;23612;50.894;10.700;2023-06-22T04:14:38;15.20;;;11.23;;
20527;SDS011;23612;50.894;10.700;2023-06-22T04:17:04;16.27;;;10.88;;
20527;SDS011;23612;50.894;10.700;2023-06-22T04:19:29;19.80;;;12.35;;
20527;SDS011;23612;50.894;10.700;2023-06-22T04:21:55;14.43;;;10.68;;
20527;SDS011;23612;50.894;10.700;2023-06-22T04:24:20;12.63;;;10.48;;
20527;SDS011;23612;50.894;10.700;2023-06-22T04:26:46;12.35;;;10.10;;
20527;SDS011;23612;50.894;10.700;2023-06-22T04:29:12;13.05;;;9.82;;
20527;SDS011;23612;50.894;10.700;2023-06-22T04:31:38;14.85;;;10.57;;
20527;SDS011;23612;50.894;10.700;2023-06-22T04:34:03;17.42;;;10.60;;
20527;SDS011;23612;50.894;10.700;2023-06-22T04:36:40;15.98;;;10.18;;
20527;SDS011;23612;50.894;10.700;2023-06-22T04:39:06;15.00;;;9.02;;
20527;SDS011;23612;50.894;10.700;2023-06-22T04:41:34;16.60;;;9.73;;
20527;SDS011;23612;50.894;10.700;2023-06-22T04:44:07;15.68;;;10.25;;
20527;SDS011;23612;50.894;10.700;2023-06-22T04:46:35;14.48;;;10.15;;
20527;SDS011;23612;50.894;10.700;2023-06-22T04:49:04;17.13;;;10.70;;
20527;SDS011;23612;50.894;10.700;2023-06-22T04:51:31;17.17;;;10.32;;
20527;SDS011;23612;50.894;10.700;2023-06-22T04:53:57;22.10;;;10.35;;
20527;SDS011;23612;50.894;10.700;2023-06-22T04:56:25;18.75;;;11.32;;
20527;SDS011;23612;50.894;10.700;2023-06-22T04:58:53;12.20;;;9.80;;
20527;SDS011;23612;50.894;10.700;2023-06-22T05:01:21;15.35;;;9.60;;
20527;SDS011;23612;50.894;10.700;2023-06-22T05:03:47;19.58;;;12.15;;
20527;SDS011;23612;50.894;10.700;2023-06-22T05:06:13;19.75;;;12.05;;
20527;SDS011;23612;50.894;10.700;2023-06-22T05:08:39;19.88;;;12.43;;
20527;SDS011;23612;50.894;10.700;2023-06-22T05:11:05;16.17;;;10.40;;
20527;SDS011;23612;50.894;10.700;2023-06-22T05:13:30;14.80;;;10.45;;
20527;SDS011;23612;50.894;10.700;2023-06-22T05:15:56;18.42;;;10.25;;
20527;SDS011;23612;50.894;10.700;2023-06-22T05:18:26;17.80;;;10.35;;
20527;SDS011;23612;50.894;10.700;2023-06-22T05:20:55;12.75;;;10.52;;
20527;SDS011;23612;50.894;10.700;2023-06-22T05:23:21;18.52;;;9.38;;
20527;SDS011;23612;50.894;10.700;2023-06-22T05:25:47;10.65;;;9.02;;
20527;SDS011;23612;50.894;10.700;2023-06-22T05:28:12;16.33;;;10.20;;
20527;SDS011;23612;50.894;10.700;2023-06-22T05:30:38;11.43;;;10.10;;
20527;SDS011;23612;50.894;10.700;2023-06-22T05:33:04;16.30;;;9.85;;
20527;SDS011;23612;50.894;10.700;2023-06-22T05:35:29;12.50;;;10.25;;
20527;SDS011;23612;50.894;10.700;2023-06-22T05:37:55;12.25;;;9.88;;
20527;SDS011;23612;50.894;10.700;2023-06-22T05:40:21;13.35;;;10.00;;
20527;SDS011;23612;50.894;10.700;2023-06-22T05:42:46;13.93;;;10.15;;
20527;SDS011;23612;50.894;10.700;2023-06-22T05:45:12;13.55;;;9.45;;
20527;SDS011;23612;50.894;10.700;2023-06-22T05:47:38;12.35;;;9.05;;
20527;SDS011;23612;50.894;10.700;2023-06-22T05:50:04;11.27;;;9.25;;
20527;SDS011;23612;50.894;10.700;2023-06-22T05:52:33;14.90;;;9.18;;
20527;SDS011;23612;50.894;10.700;2023-06-22T05:54:59;15.23;;;9.90;;
20527;SDS011;23612;50.894;10.700;2023-06-22T05:57:25;18.92;;;9.77;;
20527;SDS011;23612;50.894;10.700;2023-06-22T05:59:50;13.93;;;9.55;;
20527;SDS011;23612;50.894;10.700;2023-06-22T06:02:16;13.18;;;9.20;;
20527;SDS011;23612;50.894;10.700;2023-06-22T06:04:42;21.70;;;9.68;;
20527;SDS011;23612;50.894;10.700;2023-06-22T06:07:07;13.68;;;9.13;;
20527;SDS011;23612;50.894;10.700;2023-06-22T06:09:33;10.23;;;8.85;;
20527;SDS011;23612;50.894;10.700;2023-06-22T06:11:58;14.30;;;9.13;;
20527;SDS011;23612;50.894;10.700;2023-06-22T06:14:24;16.88;;;9.55;;
20527;SDS011;23612;50.894;10.700;2023-06-22T06:16:49;13.63;;;9.55;;
20527;SDS011;23612;50.894;10.700;2023-06-22T06:19:15;21.13;;;9.98;;
20527;SDS011;23612;50.894;10.700;2023-06-22T06:21:40;12.00;;;9.77;;
20527;SDS011;23612;50.894;10.700;2023-06-22T06:24:06;18.83;;;10.65;;
20527;SDS011;23612;50.894;10.700;2023-06-22T06:26:31;12.63;;;10.18;;
20527;SDS011;23612;50.894;10.700;2023-06-22T06:28:59;15.63;;;10.50;;
20527;SDS011;23612;50.894;10.700;2023-06-22T06:31:25;13.65;;;9.85;;
20527;SDS011;23612;50.894;10.700;2023-06-22T06:33:55;12.50;;;10.10;;
20527;SDS011;23612;50.894;10.700;2023-06-22T06:36:21;13.55;;;11.40;;
20527;SDS011;23612;50.894;10.700;2023-06-22T06:38:46;13.90;;;10.38;;
20527;SDS011;23612;50.894;10.700;2023-06-22T06:41:15;12.60;;;11.27;;
20527;SDS011;23612;50.894;10.700;2023-06-22T06:43:41;11.70;;;10.40;;
20527;SDS011;23612;50.894;10.700;2023-06-22T06:46:08;12.65;;;9.57;;
20527;SDS011;23612;50.894;10.700;2023-06-22T06:48:33;12.10;;;8.95;;
20527;SDS011;23612;50.894;10.700;2023-06-22T06:50:59;10.88;;;8.25;;
20527;SDS011;23612;50.894;10.700;2023-06-22T06:53:25;10.80;;;8.07;;
20527;SDS011;23612;50.894;10.700;2023-06-22T06:55:50;10.13;;;9.00;;
20527;SDS011;23612;50.894;10.700;2023-06-22T06:58:15;11.02;;;9.68;;
20527;SDS011;23612;50.894;10.700;2023-06-22T07:00:41;11.90;;;9.73;;
20527;SDS011;23612;50.894;10.700;2023-06-22T07:03:08;14.05;;;10.48;;
20527;SDS011;23612;50.894;10.700;2023-06-22T07:05:33;13.27;;;10.55;;
20527;SDS011;23612;50.894;10.700;2023-06-22T07:08:00;17.60;;;10.30;;
20527;SDS011;23612;50.894;10.700;2023-06-22T07:10:26;18.83;;;10.00;;
20527;SDS011;23612;50.894;10.700;2023-06-22T07:12:51;14.38;;;9.90;;
20527;SDS011;23612;50.894;10.700;2023-06-22T07:15:17;12.57;;;9.85;;
20527;SDS011;23612;50.894;10.700;2023-06-22T07:17:42;12.40;;;9.13;;
20527;SDS011;23612;50.894;10.700;2023-06-22T07:20:08;15.23;;;9.55;;
20527;SDS011;23612;50.894;10.700;2023-06-22T07:22:37;14.00;;;9.20;;
20527;SDS011;23612;50.894;10.700;2023-06-22T07:25:04;11.18;;;8.30;;
20527;SDS011;23612;50.894;10.700;2023-06-22T07:27:34;10.65;;;9.52;;
20527;SDS011;23612;50.894;10.700;2023-06-22T07:30:20;12.50;;;10.10;;
20527;SDS011;23612;50.894;10.700;2023-06-22T07:32:45;10.98;;;8.93;;
20527;SDS011;23612;50.894;10.700;2023-06-22T07:35:11;13.13;;;9.07;;
20527;SDS011;23612;50.894;10.700;2023-06-22T07:37:37;11.82;;;9.15;;
20527;SDS011;23612;50.894;10.700;2023-06-22T07:40:02;9.40;;;8.25;;
20527;SDS011;23612;50.894;10.700;2023-06-22T07:42:31;13.10;;;8.40;;
20527;SDS011;23612;50.894;10.700;2023-06-22T07:44:57;9.60;;;7.95;;
20527;SDS011;23612;50.894;10.700;2023-06-22T07:47:23;9.73;;;8.82;;
20527;SDS011;23612;50.894;10.700;2023-06-22T07:49:51;9.82;;;8.57;;
20527;SDS011;23612;50.894;10.700;2023-06-22T07:52:19;10.85;;;7.70;;
20527;SDS011;23612;50.894;10.700;2023-06-22T07:54:45;9.23;;;8.40;;
20527;SDS011;23612;50.894;10.700;2023-06-22T07:57:11;10.00;;;7.68;;
20527;SDS011;23612;50.894;10.700;2023-06-22T07:59:37;9.50;;;7.30;;
20527;SDS011;23612;50.894;10.700;2023-06-22T08:02:03;8.77;;;7.88;;
20527;SDS011;23612;50.894;10.700;2023-06-22T08:04:29;9.45;;;8.43;;
20527;SDS011;23612;50.894;10.700;2023-06-22T08:06:56;10.77;;;7.85;;
20527;SDS011;23612;50.894;10.700;2023-06-22T08:09:22;14.52;;;7.25;;
20527;SDS011;23612;50.894;10.700;2023-06-22T08:11:47;8.98;;;8.07;;
20527;SDS011;23612;50.894;10.700;2023-06-22T08:14:14;8.88;;;7.97;;
20527;SDS011;23612;50.894;10.700;2023-06-22T08:16:40;9.75;;;8.43;;
20527;SDS011;23612;50.894;10.700;2023-06-22T08:19:06;7.57;;;6.88;;
20527;SDS011;23612;50.894;10.700;2023-06-22T08:21:32;8.25;;;7.47;;
20527;SDS011;23612;50.894;10.700;2023-06-22T08:23:57;9.38;;;8.48;;
20527;SDS011;23612;50.894;10.700;2023-06-22T08:26:23;13.10;;;9.05;;
20527;SDS011;23612;50.894;10.700;2023-06-22T08:28:48;11.95;;;7.78;;
20527;SDS011;23612;50.894;10.700;2023-06-22T08:31:14;8.55;;;7.63;;
20527;SDS011;23612;50.894;10.700;2023-06-22T08:33:39;9.27;;;8.38;;
20527;SDS011;23612;50.894;10.700;2023-06-22T08:36:05;8.35;;;7.65;;
20527;SDS011;23612;50.894;10.700;2023-06-22T08:38:31;116.38;;;12.25;;
20527;SDS011;23612;50.894;10.700;2023-06-22T08:40:57;7.93;;;7.25;;
20527;SDS011;23612;50.894;10.700;2023-06-22T08:43:22;7.90;;;7.25;;
20527;SDS011;23612;50.894;10.700;2023-06-22T08:45:48;8.52;;;7.72;;
20527;SDS011;23612;50.894;10.700;2023-06-22T08:48:13;8.30;;;7.50;;
20527;SDS011;23612;50.894;10.700;2023-06-22T08:50:39;8.27;;;7.28;;
20527;SDS011;23612;50.894;10.700;2023-06-22T08:53:08;12.27;;;6.70;;
20527;SDS011;23612;50.894;10.700;2023-06-22T08:55:33;6.88;;;6.18;;
20527;SDS011;23612;50.894;10.700;2023-06-22T08:57:59;7.10;;;6.40;;
20527;SDS011;23612;50.894;10.700;2023-06-22T09:00:24;8.27;;;7.50;;
20527;SDS011;23612;50.894;10.700;2023-06-22T09:02:50;10.55;;;7.38;;
20527;SDS011;23612;50.894;10.700;2023-06-22T09:05:16;12.32;;;7.53;;
20527;SDS011;23612;50.894;10.700;2023-06-22T09:07:41;7.95;;;7.20;;
20527;SDS011;23612;50.894;10.700;2023-06-22T09:10:07;9.93;;;7.28;;
20527;SDS011;23612;50.894;10.700;2023-06-22T09:12:33;7.65;;;6.85;;
20527;SDS011;23612;50.894;10.700;2023-06-22T09:14:59;6.75;;;6.15;;
20527;SDS011;23612;50.894;10.700;2023-06-22T09:17:25;8.65;;;7.00;;
20527;SDS011;23612;50.894;10.700;2023-06-22T09:19:51;10.57;;;7.75;;
20527;SDS011;23612;50.894;10.700;2023-06-22T09:22:16;6.32;;;5.72;;
20527;SDS011;23612;50.894;10.700;2023-06-22T09:24:42;7.93;;;6.13;;
20527;SDS011;23612;50.894;10.700;2023-06-22T09:27:07;6.85;;;6.15;;
20527;SDS011;23612;50.894;10.700;2023-06-22T09:29:33;7.38;;;6.68;;
20527;SDS011;23612;50.894;10.700;2023-06-22T09:31:58;8.68;;;6.88;;
20527;SDS011;23612;50.894;10.700;2023-06-22T09:34:25;11.98;;;6.90;;
20527;SDS011;23612;50.894;10.700;2023-06-22T09:36:51;8.05;;;7.25;;
20527;SDS011;23612;50.894;10.700;2023-06-22T09:39:17;8.10;;;7.30;;
20527;SDS011;23612;50.894;10.700;2023-06-22T09:41:43;7.78;;;7.07;;
20527;SDS011;23612;50.894;10.700;2023-06-22T09:44:08;8.60;;;7.70;;
20527;SDS011;23612;50.894;10.700;2023-06-22T09:46:34;7.97;;;7.28;;
20527;SDS011;23612;50.894;10.700;2023-06-22T09:49:00;9.18;;;6.45;;
20527;SDS011;23612;50.894;10.700;2023-06-22T09:51:25;8.38;;;6.55;;
20527;SDS011;23612;50.894;10.700;2023-06-22T09:53:51;8.15;;;7.10;;
20527;SDS011;23612;50.894;10.700;2023-06-22T09:56:18;7.50;;;6.75;;
20527;SDS011;23612;50.894;10.700;2023-06-22T09:58:44;7.07;;;6.45;;
20527;SDS011;23612;50.894;10.700;2023-06-22T10:01:11;8.13;;;7.22;;
20527;SDS011;23612;50.894;10.700;2023-06-22T10:03:37;7.53;;;6.80;;
20527;SDS011;23612;50.894;10.700;2023-06-22T10:06:03;9.93;;;7.03;;
20527;SDS011;23612;50.894;10.700;2023-06-22T10:08:29;10.25;;;6.72;;
20527;SDS011;23612;50.894;10.700;2023-06-22T10:10:55;50.67;;;7.65;;
20527;SDS011;23612;50.894;10.700;2023-06-22T10:13:21;9.18;;;6.43;;
20527;SDS011;23612;50.894;10.700;2023-06-22T10:15:46;6.90;;;6.28;;
20527;SDS011;23612;50.894;10.700;2023-06-22T10:18:16;13.10;;;5.93;;
20527;SDS011;23612;50.894;10.700;2023-06-22T10:20:42;7.32;;;6.60;;
20527;SDS011;23612;50.894;10.700;2023-06-22T10:23:08;8.35;;;6.53;;
20527;SDS011;23612;50.894;10.700;2023-06-22T10:25:33;11.60;;;6.78;;
20527;SDS011;23612;50.894;10.700;2023-06-22T10:27:59;6.55;;;5.97;;
20527;SDS011;23612;50.894;10.700;2023-06-22T10:30:24;6.80;;;6.22;;
20527;SDS011;23612;50.894;10.700;2023-06-22T10:32:50;15.82;;;6.00;;
20527;SDS011;23612;50.894;10.700;2023-06-22T10:35:16;7.07;;;6.32;;
20527;SDS011;23612;50.894;10.700;2023-06-22T10:37:42;8.48;;;6.20;;
20527;SDS011;23612;50.894;10.700;2023-06-22T10:40:08;8.18;;;5.90;;
20527;SDS011;23612;50.894;10.700;2023-06-22T10:42:35;10.18;;;5.95;;
20527;SDS011;23612;50.894;10.700;2023-06-22T10:45:00;7.05;;;6.40;;
20527;SDS011;23612;50.894;10.700;2023-06-22T10:47:26;6.95;;;6.45;;
20527;SDS011;23612;50.894;10.700;2023-06-22T10:49:51;6.20;;;5.70;;
20527;SDS011;23612;50.894;10.700;2023-06-22T10:52:17;6.63;;;6.03;;
20527;SDS011;23612;50.894;10.700;2023-06-22T10:54:42;6.90;;;6.18;;
20527;SDS011;23612;50.894;10.700;2023-06-22T10:57:08;28.75;;;7.15;;
20527;SDS011;23612;50.894;10.700;2023-06-22T10:59:33;25.98;;;7.05;;
20527;SDS011;23612;50.894;10.700;2023-06-22T11:01:59;7.05;;;6.45;;
20527;SDS011;23612;50.894;10.700;2023-06-22T11:04:24;6.55;;;6.03;;
20527;SDS011;23612;50.894;10.700;2023-06-22T11:06:50;6.90;;;5.80;;
20527;SDS011;23612;50.894;10.700;2023-06-22T11:09:16;9.60;;;6.70;;
20527;SDS011;23612;50.894;10.700;2023-06-22T11:11:45;6.72;;;5.95;;
20527;SDS011;23612;50.894;10.700;2023-06-22T11:14:11;9.32;;;6.57;;
20527;SDS011;23612;50.894;10.700;2023-06-22T11:16:37;17.20;;;6.90;;
20527;SDS011;23612;50.894;10.700;2023-06-22T11:19:04;14.35;;;6.13;;
20527;SDS011;23612;50.894;10.700;2023-06-22T11:21:30;8.60;;;6.45;;
20527;SDS011;23612;50.894;10.700;2023-06-22T11:23:56;7.03;;;6.15;;
20527;SDS011;23612;50.894;10.700;2023-06-22T11:26:23;6.85;;;6.25;;
20527;SDS011;23612;50.894;10.700;2023-06-22T11:28:49;6.95;;;6.43;;
20527;SDS011;23612;50.894;10.700;2023-06-22T11:31:14;6.90;;;6.07;;
20527;SDS011;23612;50.894;10.700;2023-06-22T11:33:40;6.72;;;6.18;;
20527;SDS011;23612;50.894;10.700;2023-06-22T11:36:05;8.40;;;7.00;;
20527;SDS011;23612;50.894;10.700;2023-06-22T11:38:31;7.70;;;7.00;;
20527;SDS011;23612;50.894;10.700;2023-06-22T11:40:59;24.92;;;7.90;;
20527;SDS011;23612;50.894;10.700;2023-06-22T11:43:25;8.50;;;6.93;;
20527;SDS011;23612;50.894;10.700;2023-06-22T11:45:51;7.95;;;7.15;;
20527;SDS011;23612;50.894;10.700;2023-06-22T11:48:16;7.70;;;6.90;;
20527;SDS011;23612;50.894;10.700;2023-06-22T11:50:42;7.75;;;7.05;;
20527;SDS011;23612;50.894;10.700;2023-06-22T11:53:07;8.43;;;7.15;;
20527;SDS011;23612;50.894;10.700;2023-06-22T11:55:33;9.68;;;6.78;;
20527;SDS011;23612;50.894;10.700;2023-06-22T11:57:58;9.57;;;6.68;;
20527;SDS011;23612;50.894;10.700;2023-06-22T12:00:26;7.60;;;6.75;;
20527;SDS011;23612;50.894;10.700;2023-06-22T12:02:51;9.48;;;6.53;;
20527;SDS011;23612;50.894;10.700;2023-06-22T12:05:20;7.13;;;6.03;;
20527;SDS011;23612;50.894;10.700;2023-06-22T12:07:46;7.70;;;6.30;;
20527;SDS011;23612;50.894;10.700;2023-06-22T12:10:12;9.57;;;6.13;;
20527;SDS011;23612;50.894;10.700;2023-06-22T12:12:37;9.45;;;6.43;;
20527;SDS011;23612;50.894;10.700;2023-06-22T12:15:03;10.15;;;6.20;;
20527;SDS011;23612;50.894;10.700;2023-06-22T12:17:29;10.65;;;6.70;;
20527;SDS011;23612;50.894;10.700;2023-06-22T12:19:55;7.78;;;6.93;;
20527;SDS011;23612;50.894;10.700;2023-06-22T12:22:20;6.95;;;6.22;;
20527;SDS011;23612;50.894;10.700;2023-06-22T12:24:46;8.50;;;6.60;;
20527;SDS011;23612;50.894;10.700;2023-06-22T12:27:12;7.22;;;6.43;;
20527;SDS011;23612;50.894;10.700;2023-06-22T12:29:37;7.68;;;6.35;;
20527;SDS011;23612;50.894;10.700;2023-06-22T12:32:03;6.95;;;6.28;;
20527;SDS011;23612;50.894;10.700;2023-06-22T12:34:29;7.82;;;6.10;;
20527;SDS011;23612;50.894;10.700;2023-06-22T12:36:54;9.75;;;6.78;;
20527;SDS011;23612;50.894;10.700;2023-06-22T12:39:20;8.85;;;6.93;;
20527;SDS011;23612;50.894;10.700;2023-06-22T12:41:45;8.32;;;6.65;;
20527;SDS011;23612;50.894;10.700;2023-06-22T12:44:11;8.88;;;6.28;;
20527;SDS011;23612;50.894;10.700;2023-06-22T12:46:36;8.88;;;7.00;;
20527;SDS011;23612;50.894;10.700;2023-06-22T12:49:03;7.70;;;6.88;;
20527;SDS011;23612;50.894;10.700;2023-06-22T12:51:29;6.82;;;6.13;;
20527;SDS011;23612;50.894;10.700;2023-06-22T12:53:55;8.45;;;7.00;;
20527;SDS011;23612;50.894;10.700;2023-06-22T12:56:21;8.07;;;6.70;;
20527;SDS011;23612;50.894;10.700;2023-06-22T12:58:46;8.02;;;7.25;;
20527;SDS011;23612;50.894;10.700;2023-06-22T13:01:12;12.70;;;7.20;;
20527;SDS011;23612;50.894;10.700;2023-06-22T13:03:37;10.45;;;6.88;;
20527;SDS011;23612;50.894;10.700;2023-06-22T13:06:03;9.25;;;7.78;;
20527;SDS011;23612;50.894;10.700;2023-06-22T13:08:28;8.25;;;7.03;;
20527;SDS011;23612;50.894;10.700;2023-06-22T13:10:54;11.57;;;7.18;;
20527;SDS011;23612;50.894;10.700;2023-06-22T13:13:21;28.00;;;8.88;;
20527;SDS011;23612;50.894;10.700;2023-06-22T13:15:51;9.38;;;7.70;;
20527;SDS011;23612;50.894;10.700;2023-06-22T13:18:17;23.00;;;8.82;;
20527;SDS011;23612;50.894;10.700;2023-06-22T13:20:43;12.40;;;7.97;;
20527;SDS011;23612;50.894;10.700;2023-06-22T13:23:10;13.23;;;8.02;;
20527;SDS011;23612;50.894;10.700;2023-06-22T13:25:35;10.68;;;7.82;;
20527;SDS011;23612;50.894;10.700;2023-06-22T13:28:01;16.60;;;7.70;;
20527;SDS011;23612;50.894;10.700;2023-06-22T13:30:27;9.50;;;8.02;;
20527;SDS011;23612;50.894;10.700;2023-06-22T13:32:52;10.23;;;7.82;;
20527;SDS011;23612;50.894;10.700;2023-06-22T13:35:18;8.43;;;7.63;;
20527;SDS011;23612;50.894;10.700;2023-06-22T13:37:43;12.27;;;8.10;;
20527;SDS011;23612;50.894;10.700;2023-06-22T13:40:09;10.45;;;7.93;;
20527;SDS011;23612;50.894;10.700;2023-06-22T13:42:34;14.00;;;8.05;;
20527;SDS011;23612;50.894;10.700;2023-06-22T13:45:00;14.52;;;7.28;;
20527;SDS011;23612;50.894;10.700;2023-06-22T13:47:26;8.57;;;7.68;;
20527;SDS011;23612;50.894;10.700;2023-06-22T13:49:51;13.38;;;8.05;;
20527;SDS011;23612;50.894;10.700;2023-06-22T13:52:17;19.40;;;7.90;;
20527;SDS011;23612;50.894;10.700;2023-06-22T13:54:42;8.90;;;7.72;;
20527;SDS011;23612;50.894;10.700;2023-06-22T13:57:08;11.35;;;7.63;;
20527;SDS011;23612;50.894;10.700;2023-06-22T13:59:33;10.95;;;7.55;;
20527;SDS011;23612;50.894;10.700;2023-06-22T14:01:59;10.65;;;7.97;;
20527;SDS011;23612;50.894;10.700;2023-06-22T14:04:25;12.05;;;8.70;;
20527;SDS011;23612;50.894;10.700;2023-06-22T14:06:50;8.88;;;7.18;;
20527;SDS011;23612;50.894;10.700;2023-06-22T14:09:16;12.15;;;8.20;;
20527;SDS011;23612;50.894;10.700;2023-06-22T14:11:41;14.93;;;8.32;;
20527;SDS011;23612;50.894;10.700;2023-06-22T14:14:06;16.85;;;10.25;;
20527;SDS011;23612;50.894;10.700;2023-06-22T14:16:32;11.63;;;7.72;;
20527;SDS011;23612;50.894;10.700;2023-06-22T14:18:57;14.15;;;8.93;;
20527;SDS011;23612;50.894;10.700;2023-06-22T14:21:23;11.50;;;8.18;;